createdAt,value
2018-12-31T00:02:52.227Z,73.40
2018-12-31T00:06:57.916Z,74.30
2018-12-31T00:11:03.622Z,74.60
2018-12-31T00:15:09.377Z,75.60
2018-12-31T00:19:15.039Z,74.30
2018-12-31T00:23:20.719Z,74.50
2018-12-31T00:27:26.405Z,74.40
2018-12-31T00:31:32.121Z,74.50
2018-12-31T00:35:37.785Z,74.00
2018-12-31T00:39:43.478Z,74.30
2018-12-31T00:43:49.190Z,74.60
2018-12-31T00:47:55.465Z,74.80
2018-12-31T00:52:01.125Z,75.00
2018-12-31T01:02:33.993Z,75.40
2018-12-31T01:06:39.834Z,78.60
2018-12-31T01:10:46.428Z,77.50
2018-12-31T01:14:52.185Z,77.30
2018-12-31T01:18:57.937Z,77.30
2018-12-31T01:28:29.750Z,77.00
2018-12-31T01:32:35.426Z,76.70
2018-12-31T01:36:41.101Z,76.80
2018-12-31T01:40:46.843Z,76.70
2018-12-31T01:44:52.524Z,76.80
2018-12-31T01:48:58.208Z,76.90
2018-12-31T01:53:03.910Z,76.70
2018-12-31T01:57:09.597Z,76.90
2018-12-31T02:01:15.333Z,77.00
2018-12-31T02:05:21.041Z,77.40
2018-12-31T02:09:27.701Z,77.60
2018-12-31T02:13:33.374Z,77.90
2018-12-31T02:17:40.048Z,77.40
2018-12-31T02:21:45.736Z,77.60
2018-12-31T02:25:51.512Z,77.60
2018-12-31T02:29:57.245Z,77.20
2018-12-31T02:34:03.039Z,77.40
2018-12-31T02:38:08.718Z,77.50
2018-12-31T02:42:14.390Z,77.10
2018-12-31T02:46:20.148Z,77.20
2018-12-31T02:50:25.847Z,76.90
2018-12-31T02:54:31.533Z,77.10
2018-12-31T02:58:37.220Z,76.90
2018-12-31T03:02:42.901Z,78.70
2018-12-31T03:06:48.601Z,78.50
2018-12-31T03:10:54.245Z,78.60
2018-12-31T03:14:59.928Z,78.80
2018-12-31T03:19:05.612Z,79.10
2018-12-31T03:23:11.301Z,79.00
2018-12-31T03:27:17.015Z,78.80
2018-12-31T03:31:34.933Z,78.30
2018-12-31T03:40:42.108Z,77.90
2018-12-31T03:45:26.743Z,77.40
2018-12-31T03:49:44.979Z,79.00
2018-12-31T03:54:10.008Z,78.80
2018-12-31T03:58:28.007Z,78.70
2018-12-31T04:02:53.040Z,78.90
2018-12-31T04:07:11.189Z,78.10
2018-12-31T04:20:49.343Z,79.00
2018-12-31T04:25:07.054Z,79.00
2018-12-31T04:29:32.045Z,79.30
2018-12-31T04:33:49.567Z,79.50
2018-12-31T04:38:14.610Z,79.70
2018-12-31T04:42:34.251Z,78.70
2018-12-31T04:46:59.279Z,79.60
2018-12-31T04:51:16.997Z,79.30
2018-12-31T04:55:44.513Z,79.80
2018-12-31T05:00:09.164Z,78.50
2018-12-31T05:04:34.204Z,79.40
2018-12-31T05:14:56.093Z,79.10
2018-12-31T05:24:55.085Z,79.10
2018-12-31T05:29:52.046Z,78.70
2018-12-31T05:34:55.638Z,79.50
2018-12-31T05:39:52.665Z,79.50
2018-12-31T05:44:56.263Z,79.00
2018-12-31T05:49:53.647Z,78.90
2018-12-31T05:54:57.247Z,79.30
2018-12-31T05:59:54.260Z,78.90
2018-12-31T06:04:50.794Z,78.80
2018-12-31T06:09:47.925Z,78.90
2018-12-31T06:14:47.757Z,78.70
2018-12-31T06:19:51.357Z,78.80
2018-12-31T06:24:48.419Z,79.10
2018-12-31T06:29:52.005Z,79.40
2018-12-31T06:39:51.634Z,79.00
2018-12-31T06:44:48.097Z,78.80
2018-12-31T06:49:51.696Z,79.70
2018-12-31T07:04:58.593Z,79.80
2018-12-31T07:14:53.634Z,80.30
2018-12-31T07:19:57.220Z,81.00
2018-12-31T07:24:53.688Z,80.90
2018-12-31T07:35:53.445Z,81.80
2018-12-31T07:40:18.475Z,82.00
2018-12-31T07:44:36.137Z,81.80
2018-12-31T07:49:01.235Z,81.70
2018-12-31T07:53:18.895Z,81.40
2018-12-31T07:57:43.975Z,81.30
2018-12-31T08:02:01.637Z,80.20
2018-12-31T08:06:19.501Z,81.70
2018-12-31T08:10:43.576Z,81.60
2018-12-31T08:15:01.599Z,81.80
2018-12-31T08:19:26.637Z,80.70
2018-12-31T08:23:44.229Z,80.80
2018-12-31T08:28:09.270Z,81.90
2018-12-31T08:32:27.005Z,80.50
2018-12-31T08:36:52.062Z,80.20
2018-12-31T08:41:09.821Z,79.80
2018-12-31T08:45:34.851Z,80.00
2018-12-31T08:49:52.467Z,80.40
2018-12-31T08:54:17.477Z,80.50
2018-12-31T08:58:35.276Z,80.10
2018-12-31T09:03:00.309Z,80.30
2018-12-31T09:07:18.135Z,79.80
2018-12-31T09:11:43.155Z,80.00
2018-12-31T09:15:59.077Z,79.20
2018-12-31T09:20:24.106Z,79.80
2018-12-31T09:24:44.751Z,80.90
2018-12-31T09:29:50.309Z,80.20
2018-12-31T09:34:46.814Z,79.50
2018-12-31T09:39:50.420Z,80.30
2018-12-31T09:44:46.835Z,80.10
2018-12-31T10:00:49.186Z,79.70
2018-12-31T10:10:49.282Z,80.70
2018-12-31T10:15:48.960Z,79.40
2018-12-31T10:19:54.660Z,79.10
2018-12-31T10:24:48.628Z,78.80
2018-12-31T10:33:38.318Z,79.30
2018-12-31T10:37:56.365Z,78.90
2018-12-31T10:42:21.425Z,79.30
2018-12-31T10:46:39.596Z,79.80
2018-12-31T10:55:41.591Z,80.00
2018-12-31T11:00:01.256Z,79.20
2018-12-31T11:04:27.274Z,79.10
2018-12-31T11:08:45.428Z,79.40
2018-12-31T11:13:10.473Z,78.70
2018-12-31T11:17:28.319Z,78.60
2018-12-31T11:21:53.377Z,78.80
2018-12-31T11:26:11.520Z,78.60
2018-12-31T11:30:31.146Z,78.20
2018-12-31T11:44:09.457Z,77.70
2018-12-31T11:48:27.326Z,77.60
2018-12-31T11:52:52.348Z,78.20
2018-12-31T11:57:10.150Z,77.00
2018-12-31T12:01:28.123Z,76.90
2018-12-31T12:05:46.362Z,78.50
2018-12-31T12:10:04.665Z,77.50
2018-12-31T12:14:22.938Z,77.60
2018-12-31T12:18:48.298Z,78.20
2018-12-31T12:22:53.978Z,77.60
2018-12-31T12:26:59.734Z,77.60
2018-12-31T12:31:05.445Z,77.80
2018-12-31T12:35:11.153Z,78.50
2018-12-31T12:39:16.833Z,78.80
2018-12-31T12:43:22.548Z,79.40
2018-12-31T12:47:28.246Z,79.00
2018-12-31T12:51:33.935Z,78.70
2018-12-31T12:55:39.660Z,79.50
2018-12-31T12:59:45.338Z,79.50
2018-12-31T13:03:51.038Z,79.00
2018-12-31T13:07:56.754Z,79.00
2018-12-31T13:12:02.464Z,78.90
2018-12-31T13:16:08.178Z,78.00
2018-12-31T13:20:13.917Z,77.50
2018-12-31T13:24:19.612Z,76.70
2018-12-31T13:28:25.610Z,77.00
2018-12-31T13:32:31.335Z,76.90
2018-12-31T13:36:37.029Z,74.90
2018-12-31T13:40:42.806Z,76.10
2018-12-31T13:44:48.502Z,76.10
2018-12-31T13:48:54.206Z,75.70
2018-12-31T13:52:59.921Z,76.30
2018-12-31T13:57:05.638Z,76.60
2018-12-31T14:01:11.661Z,77.50
2018-12-31T14:05:17.458Z,77.80
2018-12-31T14:09:23.173Z,77.60
2018-12-31T14:13:28.909Z,77.00
2018-12-31T14:17:34.612Z,77.10
2018-12-31T14:21:40.304Z,78.00
2018-12-31T14:25:46.001Z,77.00
2018-12-31T14:29:51.694Z,77.50
2018-12-31T14:33:57.396Z,76.10
2018-12-31T14:38:03.102Z,77.50
2018-12-31T14:42:08.825Z,77.20
2018-12-31T14:46:14.814Z,77.40
2018-12-31T14:50:20.517Z,78.10
2018-12-31T14:54:26.211Z,78.20
2018-12-31T14:58:31.934Z,78.70
2018-12-31T15:02:37.635Z,78.80
2018-12-31T15:06:43.411Z,78.50
2018-12-31T15:10:49.117Z,78.00
2018-12-31T15:14:54.797Z,78.50
2018-12-31T15:19:00.573Z,79.00
2018-12-31T15:23:06.358Z,78.20
2018-12-31T15:27:12.083Z,77.70
2018-12-31T15:31:17.810Z,77.50
2018-12-31T15:35:23.498Z,79.10
2018-12-31T15:39:29.197Z,78.80
2018-12-31T15:43:34.955Z,79.10
2018-12-31T15:47:40.679Z,78.30
2018-12-31T15:51:46.728Z,79.40
2018-12-31T15:55:52.416Z,77.80
2018-12-31T15:59:58.128Z,78.90
2018-12-31T16:04:03.838Z,79.10
2018-12-31T16:08:09.535Z,78.30
2018-12-31T16:12:15.216Z,78.60
2018-12-31T16:16:20.912Z,78.60
2018-12-31T16:20:26.616Z,78.40
2018-12-31T16:24:32.591Z,78.70
2018-12-31T16:28:38.309Z,77.40
2018-12-31T16:32:43.972Z,78.80
2018-12-31T16:36:49.748Z,79.30
2018-12-31T16:40:55.447Z,80.00
2018-12-31T16:45:01.135Z,80.30
2018-12-31T16:49:08.450Z,80.10
2018-12-31T16:53:14.145Z,80.90
2018-12-31T16:57:20.107Z,79.50
2018-12-31T17:01:25.883Z,78.20
2018-12-31T17:05:31.560Z,78.80
2018-12-31T17:09:37.268Z,79.20
2018-12-31T17:13:43.035Z,78.30
2018-12-31T17:17:48.740Z,78.40
2018-12-31T17:21:54.441Z,78.40
2018-12-31T17:26:00.149Z,78.80
2018-12-31T17:30:07.791Z,79.30
2018-12-31T17:34:13.491Z,80.20
2018-12-31T17:38:19.202Z,80.70
2018-12-31T17:42:24.907Z,78.90
2018-12-31T17:46:30.594Z,80.10
2018-12-31T17:50:36.296Z,80.00
2018-12-31T17:54:42.013Z,80.10
2018-12-31T17:58:47.707Z,79.00
2018-12-31T18:02:53.871Z,79.70
2018-12-31T18:06:59.557Z,79.80
2018-12-31T18:11:05.283Z,78.40
2018-12-31T18:15:11.015Z,79.20
2018-12-31T18:19:16.722Z,79.00
2018-12-31T18:23:22.431Z,79.70
2018-12-31T18:27:28.127Z,79.20
2018-12-31T18:31:33.875Z,78.30
2018-12-31T18:35:39.955Z,77.30
2018-12-31T18:39:49.362Z,78.60
2018-12-31T18:43:54.048Z,78.10
2018-12-31T18:47:59.799Z,78.00
2018-12-31T18:52:50.408Z,78.10
2018-12-31T18:56:56.116Z,78.40
2018-12-31T19:01:01.914Z,78.90
2018-12-31T19:05:07.890Z,79.90
2018-12-31T19:09:13.584Z,79.20
2018-12-31T19:13:19.296Z,79.00
2018-12-31T19:17:25.003Z,78.90
2018-12-31T19:21:30.705Z,78.80
2018-12-31T19:25:36.387Z,79.20
2018-12-31T19:29:42.173Z,80.50
2018-12-31T19:33:47.919Z,78.70
2018-12-31T19:37:53.959Z,78.80
2018-12-31T19:41:59.643Z,79.50
2018-12-31T19:46:05.344Z,79.20
2018-12-31T19:50:12.602Z,80.70
2018-12-31T19:54:18.296Z,79.30
2018-12-31T19:58:24.140Z,80.20
2018-12-31T20:02:29.868Z,79.50
2018-12-31T20:06:35.581Z,79.40
2018-12-31T20:10:41.287Z,80.80
2018-12-31T20:14:46.987Z,80.20
2018-12-31T20:18:52.671Z,78.50
2018-12-31T20:22:58.391Z,79.80
2018-12-31T20:27:04.081Z,78.70
2018-12-31T20:31:10.057Z,78.10
2018-12-31T20:35:15.779Z,91.70
2018-12-31T20:39:21.458Z,77.50
2018-12-31T20:43:27.168Z,79.90
2018-12-31T20:47:32.900Z,81.30
2018-12-31T20:51:38.660Z,85.00
2018-12-31T20:55:44.365Z,85.60
2018-12-31T20:59:50.041Z,87.10
2018-12-31T21:03:55.744Z,87.10
2018-12-31T21:08:01.452Z,87.80
2018-12-31T21:12:07.427Z,88.00
2018-12-31T21:16:13.122Z,90.60
2018-12-31T21:20:20.799Z,90.30
2018-12-31T21:24:26.293Z,86.50
2018-12-31T21:28:32.038Z,87.90
2018-12-31T21:32:37.833Z,90.00
2018-12-31T21:36:43.539Z,88.20
2018-12-31T21:40:50.185Z,88.30
2018-12-31T21:44:59.175Z,89.10
2018-12-31T21:49:04.908Z,89.60
2018-12-31T21:53:10.603Z,90.50
2018-12-31T21:57:18.138Z,90.30
2018-12-31T22:01:23.709Z,90.40
2018-12-31T22:05:29.398Z,88.20
2018-12-31T22:09:35.090Z,88.40
2018-12-31T22:13:40.785Z,89.00
2018-12-31T22:17:46.466Z,89.20
2018-12-31T22:21:52.156Z,89.10
2018-12-31T22:26:48.145Z,89.80
2018-12-31T22:30:53.918Z,89.90
2018-12-31T22:35:50.818Z,90.40
2018-12-31T22:39:56.516Z,89.70
2018-12-31T22:44:02.198Z,91.90
2018-12-31T22:48:07.895Z,94.10
2018-12-31T22:52:13.605Z,84.30
2018-12-31T22:56:19.579Z,87.00
2018-12-31T23:00:27.152Z,88.80
2018-12-31T23:04:34.442Z,89.00
2018-12-31T23:08:40.159Z,88.70
2018-12-31T23:12:45.848Z,93.10
2018-12-31T23:16:52.767Z,90.10
2018-12-31T23:20:58.473Z,84.20
2018-12-31T23:25:04.331Z,86.20
2018-12-31T23:29:11.568Z,87.50
2018-12-31T23:33:17.347Z,88.40
2018-12-31T23:37:23.040Z,88.10
2018-12-31T23:41:28.736Z,87.80
2018-12-31T23:45:34.502Z,88.20
2018-12-31T23:49:40.275Z,88.60
2018-12-31T23:53:45.987Z,89.80
2018-12-31T23:57:51.696Z,89.20
